createdAt,value
2018-03-03T00:00:33.987Z,1.3
2018-03-03T00:01:24.137Z,1.2
2018-03-03T00:02:13.604Z,1.3
2018-03-03T00:03:04.160Z,1.2
2018-03-03T00:03:53.742Z,1.3
2018-03-03T00:04:43.968Z,1.3
2018-03-03T00:05:34.043Z,1.3
2018-03-03T00:06:23.220Z,1.2
2018-03-03T00:07:13.834Z,1.2
2018-03-03T00:08:04.219Z,1.2
2018-03-03T00:08:54.257Z,1.2
2018-03-03T00:09:43.435Z,1.2
2018-03-03T00:10:33.977Z,1.2
2018-03-03T00:11:24.730Z,1.2
2018-03-03T00:12:14.471Z,1.1
2018-03-03T00:13:04.460Z,1.1
2018-03-03T00:13:54.395Z,1.1
2018-03-03T00:14:44.352Z,1.1
2018-03-03T00:15:34.716Z,1.1
2018-03-03T00:16:24.451Z,1.1
2018-03-03T00:17:14.910Z,1.1
2018-03-03T00:18:05.180Z,1.1
2018-03-03T00:18:54.464Z,1.1
2018-03-03T00:19:44.215Z,1.1
2018-03-03T00:20:34.587Z,1.1
2018-03-03T00:21:24.626Z,1.1
2018-03-03T00:22:14.692Z,1.1
2018-03-03T00:23:04.436Z,1.1
2018-03-03T00:23:55.261Z,1.1
2018-03-03T00:24:44.624Z,1.1
2018-03-03T00:25:35.280Z,1.1
2018-03-03T00:26:25.436Z,1.2
2018-03-03T00:27:15.093Z,1.2
2018-03-03T00:28:05.293Z,1.2
2018-03-03T00:28:55.056Z,1.2
2018-03-03T00:29:45.260Z,1.2
2018-03-03T00:30:35.458Z,1.3
2018-03-03T00:31:25.798Z,1.3
2018-03-03T00:32:15.255Z,1.3
2018-03-03T00:33:05.101Z,1.2
2018-03-03T00:33:55.617Z,1.3
2018-03-03T00:34:45.220Z,1.3
2018-03-03T00:35:35.473Z,1.3
2018-03-03T00:36:25.838Z,1.3
2018-03-03T00:37:15.978Z,1.3
2018-03-03T00:38:05.832Z,1.3
2018-03-03T00:38:56.596Z,1.3
2018-03-03T00:39:45.762Z,1.3
2018-03-03T00:40:35.528Z,1.3
2018-03-03T00:41:26.270Z,1.3
2018-03-03T00:42:15.842Z,1.3
2018-03-03T00:43:06.163Z,1.3
2018-03-03T00:43:56.048Z,1.2
2018-03-03T00:44:46.977Z,1.3
2018-03-03T00:45:36.730Z,1.3
2018-03-03T00:46:26.491Z,1.3
2018-03-03T00:47:16.837Z,1.3
2018-03-03T00:48:07.473Z,1.3
2018-03-03T00:48:56.652Z,1.4
2018-03-03T00:49:46.914Z,1.4
2018-03-03T00:50:37.072Z,1.5
2018-03-03T00:51:26.514Z,1.6
2018-03-03T00:52:16.616Z,1.6
2018-03-03T00:53:07.032Z,1.6
2018-03-03T00:53:57.276Z,1.7
2018-03-03T00:54:46.763Z,1.8
2018-03-03T00:55:37.680Z,1.8
2018-03-03T00:56:27.542Z,1.9
2018-03-03T00:57:16.925Z,1.9
2018-03-03T00:58:07.689Z,2
2018-03-03T00:58:57.713Z,2.1
2018-03-03T00:59:46.993Z,2.1
2018-03-03T01:00:38.321Z,2.1
2018-03-03T01:01:27.887Z,2.2
2018-03-03T01:02:17.589Z,2.2
2018-03-03T01:03:07.911Z,2.3
2018-03-03T01:03:58.072Z,2.3
2018-03-03T01:04:48.007Z,2.3
2018-03-03T01:05:38.362Z,2.3
2018-03-03T01:06:28.412Z,2.4
2018-03-03T01:07:18.476Z,2.4
2018-03-03T01:08:08.051Z,2.4
2018-03-03T01:08:57.796Z,2.4
2018-03-03T01:09:48.456Z,2.4
2018-03-03T01:10:38.178Z,2.4
2018-03-03T01:11:28.758Z,2.5
2018-03-03T01:12:18.800Z,2.5
2018-03-03T01:13:08.308Z,2.5
2018-03-03T01:13:58.727Z,2.6
2018-03-03T01:14:48.795Z,2.6
2018-03-03T01:15:38.363Z,2.6
2018-03-03T01:16:28.340Z,2.6
2018-03-03T01:17:18.386Z,2.6
2018-03-03T01:18:08.441Z,2.6
2018-03-03T01:18:58.970Z,2.6
2018-03-03T01:19:48.939Z,2.6
2018-03-03T01:20:39.366Z,2.6
2018-03-03T01:21:28.852Z,2.6
2018-03-03T01:22:18.802Z,2.6
2018-03-03T01:23:08.756Z,2.6
2018-03-03T01:23:58.736Z,2.7
2018-03-03T01:24:48.210Z,2.7
2018-03-03T01:25:39.425Z,2.7
2018-03-03T01:26:29.344Z,2.7
2018-03-03T01:27:19.546Z,2.7
2018-03-03T01:28:09.416Z,2.7
2018-03-03T01:28:59.637Z,2.7
2018-03-03T01:29:49.995Z,2.8
2018-03-03T01:30:40.030Z,2.8
2018-03-03T01:31:30.384Z,2.8
2018-03-03T01:32:19.572Z,2.8
2018-03-03T01:33:09.649Z,2.8
2018-03-03T01:33:59.990Z,2.8
2018-03-03T01:34:50.362Z,2.8
2018-03-03T01:35:38.823Z,2.8
2018-03-03T01:36:30.430Z,2.8
2018-03-03T01:37:19.750Z,2.9
2018-03-03T01:38:09.269Z,2.9
2018-03-03T01:39:00.064Z,2.9
2018-03-03T01:39:50.495Z,2.9
2018-03-03T01:40:40.434Z,2.9
2018-03-03T01:41:30.515Z,2.9
2018-03-03T01:42:20.840Z,3
2018-03-03T01:43:10.396Z,3
2018-03-03T01:44:00.177Z,3.1
2018-03-03T01:44:50.612Z,3.1
2018-03-03T01:45:40.770Z,3.1
2018-03-03T01:46:31.127Z,3.2
2018-03-03T01:47:20.984Z,3.2
2018-03-03T01:48:11.260Z,3.3
2018-03-03T01:49:01.267Z,3.3
2018-03-03T01:49:50.759Z,3.3
2018-03-03T01:50:41.112Z,3.4
2018-03-03T01:51:30.900Z,3.4
2018-03-03T01:52:21.004Z,3.4
2018-03-03T01:53:11.379Z,3.5
2018-03-03T01:54:00.865Z,3.5
2018-03-03T01:54:51.376Z,3.5
2018-03-03T01:55:41.417Z,3.6
2018-03-03T01:56:31.380Z,3.6
2018-03-03T01:57:21.152Z,3.6
2018-03-03T01:58:11.684Z,3.6
2018-03-03T01:59:01.749Z,3.6
2018-03-03T01:59:51.250Z,3.6
2018-03-03T02:00:42.068Z,3.6
2018-03-03T02:01:32.129Z,3.6
2018-03-03T02:02:21.502Z,3.7
2018-03-03T02:03:11.463Z,3.7
2018-03-03T02:04:02.611Z,3.7
2018-03-03T02:04:51.854Z,3.7
2018-03-03T02:05:42.435Z,3.7
2018-03-03T02:06:32.150Z,3.8
2018-03-03T02:07:22.648Z,3.8
2018-03-03T02:08:12.102Z,3.8
2018-03-03T02:09:02.674Z,3.8
2018-03-03T02:09:52.109Z,3.8
2018-03-03T02:10:42.455Z,3.8
2018-03-03T02:11:32.305Z,3.8
2018-03-03T02:12:22.861Z,3.8
2018-03-03T02:13:12.133Z,3.8
2018-03-03T02:14:02.391Z,3.9
2018-03-03T02:14:53.133Z,3.9
2018-03-03T02:15:42.858Z,3.9
2018-03-03T02:16:32.844Z,3.9
2018-03-03T02:17:22.897Z,3.9
2018-03-03T02:18:12.983Z,4
2018-03-03T02:19:03.483Z,4.1
2018-03-03T02:19:52.610Z,4.1
2018-03-03T02:20:43.177Z,4.1
2018-03-03T02:21:33.489Z,4.1
2018-03-03T02:22:22.817Z,4.2
2018-03-03T02:23:12.777Z,4.2
2018-03-03T02:24:03.167Z,4.2
2018-03-03T02:24:53.137Z,4.3
2018-03-03T02:25:43.169Z,4.3
2018-03-03T02:26:33.051Z,4.3
2018-03-03T02:27:23.583Z,4.3
2018-03-03T02:28:13.927Z,4.3
2018-03-03T02:29:03.395Z,4.3
2018-03-03T02:29:53.481Z,4.3
2018-03-03T02:30:43.485Z,4.3
2018-03-03T02:31:33.882Z,4.3
2018-03-03T02:32:23.629Z,4.3
2018-03-03T02:33:14.251Z,4.4
2018-03-03T02:34:04.316Z,4.4
2018-03-03T02:34:54.665Z,4.4
2018-03-03T02:35:44.690Z,4.4
2018-03-03T02:36:34.772Z,4.4
2018-03-03T02:37:24.557Z,4.4
2018-03-03T02:38:14.349Z,4.4
2018-03-03T02:39:04.939Z,4.4
2018-03-03T02:39:54.693Z,4.4
2018-03-03T02:40:44.474Z,4.4
2018-03-03T02:41:35.124Z,4.3
2018-03-03T02:42:25.139Z,4.3
2018-03-03T02:43:14.936Z,4.4
2018-03-03T02:44:04.971Z,4.4
2018-03-03T02:44:55.325Z,4.3
2018-03-03T02:45:45.307Z,4.4
2018-03-03T02:46:34.858Z,4.4
2018-03-03T02:47:25.405Z,4.4
2018-03-03T02:48:15.586Z,4.4
2018-03-03T02:49:05.370Z,4.4
2018-03-03T02:49:55.364Z,4.4
2018-03-03T02:50:44.284Z,4.4
2018-03-03T02:51:35.508Z,4.4
2018-03-03T02:52:25.558Z,4.4
2018-03-03T02:53:14.453Z,4.5
2018-03-03T02:54:05.202Z,4.4
2018-03-03T02:54:55.136Z,4.5
2018-03-03T02:55:45.499Z,4.5
2018-03-03T02:56:35.649Z,4.5
2018-03-03T02:57:25.030Z,4.5
2018-03-03T02:58:15.448Z,4.5
2018-03-03T02:59:05.427Z,4.5
2018-03-03T02:59:55.299Z,4.5
2018-03-03T03:00:45.899Z,4.5
2018-03-03T03:01:36.051Z,4.6
2018-03-03T03:02:25.363Z,4.6
2018-03-03T03:03:16.016Z,4.6
2018-03-03T03:04:06.083Z,4.5
2018-03-03T03:04:56.237Z,4.5
2018-03-03T03:05:46.453Z,4.6
2018-03-03T03:06:35.937Z,4.6
2018-03-03T03:07:26.387Z,4.6
2018-03-03T03:08:16.357Z,4.6
2018-03-03T03:09:06.718Z,4.6
2018-03-03T03:09:55.472Z,4.6
2018-03-03T03:10:45.945Z,4.6
2018-03-03T03:11:36.867Z,4.6
2018-03-03T03:12:26.338Z,4.6
2018-03-03T03:13:16.200Z,4.6
2018-03-03T03:14:05.724Z,4.6
2018-03-03T03:14:56.915Z,4.6
2018-03-03T03:15:46.729Z,4.6
2018-03-03T03:16:36.168Z,4.6
2018-03-03T03:17:27.239Z,4.6
2018-03-03T03:18:17.305Z,4.6
2018-03-03T03:19:06.500Z,4.6
2018-03-03T03:19:57.466Z,4.6
2018-03-03T03:20:47.079Z,4.6
2018-03-03T03:21:36.937Z,4.6
2018-03-03T03:22:27.387Z,4.6
2018-03-03T03:23:17.531Z,4.6
2018-03-03T03:24:07.200Z,4.6
2018-03-03T03:24:57.457Z,4.7
2018-03-03T03:25:46.744Z,4.7
2018-03-03T03:26:37.542Z,4.8
2018-03-03T03:27:27.046Z,4.8
2018-03-03T03:28:17.709Z,4.8
2018-03-03T03:29:07.557Z,4.8
2018-03-03T03:29:57.507Z,4.8
2018-03-03T03:30:47.665Z,4.9
2018-03-03T03:31:37.938Z,4.9
2018-03-03T03:32:28.039Z,4.9
2018-03-03T03:33:17.540Z,4.9
2018-03-03T03:34:07.778Z,4.9
2018-03-03T03:34:58.120Z,5
2018-03-03T03:35:48.501Z,5
2018-03-03T03:36:37.951Z,5
2018-03-03T03:37:27.626Z,5.1
2018-03-03T03:38:18.119Z,5.1
2018-03-03T03:39:08.343Z,5.1
2018-03-03T03:39:57.689Z,5.1
2018-03-03T03:40:48.031Z,5.1
2018-03-03T03:41:38.878Z,5.1
2018-03-03T03:42:28.943Z,5.2
2018-03-03T03:43:17.895Z,5.1
2018-03-03T03:44:08.858Z,5.2
2018-03-03T03:44:58.891Z,5.2
2018-03-03T03:45:48.870Z,5.2
2018-03-03T03:46:38.937Z,5.2
2018-03-03T03:47:29.275Z,5.3
2018-03-03T03:48:19.630Z,5.3
2018-03-03T03:49:08.800Z,5.3
2018-03-03T03:49:59.127Z,5.3
2018-03-03T03:50:48.899Z,5.3
2018-03-03T03:51:38.480Z,5.3
2018-03-03T03:52:29.284Z,5.3
2018-03-03T03:53:18.600Z,5.3
2018-03-03T03:54:09.435Z,5.3
2018-03-03T03:54:59.760Z,5.3
2018-03-03T03:55:48.861Z,5.3
2018-03-03T03:56:39.841Z,5.3
2018-03-03T03:57:29.887Z,5.3
2018-03-03T03:58:19.962Z,5.3
2018-03-03T03:59:10.305Z,5.3
2018-03-03T04:00:00.086Z,5.3
2018-03-03T04:00:49.862Z,5.3
2018-03-03T04:01:40.479Z,5.3
2018-03-03T04:02:30.529Z,5.3
2018-03-03T04:03:20.446Z,5.3
2018-03-03T04:04:10.131Z,5.3
2018-03-03T04:05:00.151Z,5.3
2018-03-03T04:05:50.489Z,5.3
2018-03-03T04:06:39.979Z,5.4
2018-03-03T04:07:30.614Z,5.3
2018-03-03T04:08:20.727Z,5.3
2018-03-03T04:09:10.731Z,5.4
2018-03-03T04:09:59.986Z,5.4
2018-03-03T04:10:50.816Z,5.4
2018-03-03T04:11:40.888Z,5.4
2018-03-03T04:12:30.458Z,5.4
2018-03-03T04:13:20.600Z,5.4
2018-03-03T04:14:10.098Z,5.4
2018-03-03T04:15:00.847Z,5.4
2018-03-03T04:15:50.578Z,5.4
2018-03-03T04:16:40.646Z,5.4
2018-03-03T04:17:30.988Z,5.4
2018-03-03T04:18:21.144Z,5.4
2018-03-03T04:19:10.526Z,5.4
2018-03-03T04:20:00.870Z,5.4
2018-03-03T04:20:50.950Z,5.4
2018-03-03T04:21:40.798Z,5.4
2018-03-03T04:22:31.606Z,5.4
2018-03-03T04:23:21.675Z,5.4
2018-03-03T04:24:11.444Z,5.4
2018-03-03T04:25:01.505Z,5.4
2018-03-03T04:25:51.393Z,5.4
2018-03-03T04:26:41.712Z,5.4
2018-03-03T04:27:31.790Z,5.4
2018-03-03T04:28:21.257Z,5.4
2018-03-03T04:29:11.783Z,5.4
2018-03-03T04:30:02.130Z,5.5
2018-03-03T04:30:52.218Z,5.5
2018-03-03T04:31:41.660Z,5.5
2018-03-03T04:32:32.004Z,5.5
2018-03-03T04:33:22.069Z,5.5
2018-03-03T04:34:11.802Z,5.5
2018-03-03T04:35:02.474Z,5.6
2018-03-03T04:35:52.026Z,5.6
2018-03-03T04:36:41.914Z,5.6
2018-03-03T04:37:31.866Z,5.6
2018-03-03T04:38:21.525Z,5.6
2018-03-03T04:39:11.606Z,5.6
2018-03-03T04:40:02.514Z,5.6
2018-03-03T04:40:51.814Z,5.5
2018-03-03T04:41:42.334Z,5.4
2018-03-03T04:42:32.299Z,5.4
2018-03-03T04:43:22.515Z,5.4
2018-03-03T04:44:12.484Z,5.3
2018-03-03T04:45:03.131Z,5.3
2018-03-03T04:45:52.971Z,5.3
2018-03-03T04:46:42.938Z,5.2
2018-03-03T04:47:33.002Z,5.1
2018-03-03T04:48:22.604Z,5.1
2018-03-03T04:49:13.281Z,5.1
2018-03-03T04:50:03.218Z,5
2018-03-03T04:50:53.807Z,5
2018-03-03T04:51:43.603Z,4.9
2018-03-03T04:52:33.637Z,4.9
2018-03-03T04:53:23.966Z,4.9
2018-03-03T04:54:13.742Z,4.9
2018-03-03T04:55:04.058Z,4.9
2018-03-03T04:55:53.858Z,4.8
2018-03-03T04:56:43.663Z,4.8
2018-03-03T04:57:33.971Z,4.8
2018-03-03T04:58:23.539Z,4.8
2018-03-03T04:59:13.808Z,4.8
2018-03-03T05:00:03.086Z,4.8
2018-03-03T05:00:54.447Z,4.8
2018-03-03T05:01:44.050Z,4.8
2018-03-03T05:02:34.367Z,4.8
2018-03-03T05:03:23.701Z,4.8
2018-03-03T05:04:13.842Z,4.8
2018-03-03T05:05:04.297Z,4.8
2018-03-03T05:05:54.235Z,4.8
2018-03-03T05:06:43.814Z,4.8
2018-03-03T05:07:34.417Z,4.8
2018-03-03T05:08:24.406Z,4.8
2018-03-03T05:09:14.169Z,4.9
2018-03-03T05:10:04.247Z,4.8
2018-03-03T05:10:54.332Z,4.8
2018-03-03T05:11:44.348Z,4.9
2018-03-03T05:12:35.007Z,4.9
2018-03-03T05:13:25.026Z,4.9
2018-03-03T05:14:14.953Z,4.9
2018-03-03T05:15:04.407Z,4.9
2018-03-03T05:15:55.294Z,4.9
2018-03-03T05:16:44.307Z,4.9
2018-03-03T05:17:34.820Z,4.9
2018-03-03T05:18:24.210Z,4.9
2018-03-03T05:19:15.481Z,4.9
2018-03-03T05:20:05.567Z,4.9
2018-03-03T05:20:54.571Z,4.9
2018-03-03T05:21:45.313Z,4.9
2018-03-03T05:22:35.349Z,4.9
2018-03-03T05:23:25.714Z,4.9
2018-03-03T05:24:15.240Z,4.9
2018-03-03T05:25:05.851Z,4.9
2018-03-03T05:25:54.726Z,4.9
2018-03-03T05:26:45.096Z,4.9
2018-03-03T05:27:35.328Z,4.9
2018-03-03T05:28:26.353Z,4.8
2018-03-03T05:29:14.954Z,4.8
2018-03-03T05:30:05.903Z,4.8
2018-03-03T05:30:56.252Z,4.8
2018-03-03T05:31:46.357Z,4.8
2018-03-03T05:32:35.936Z,4.8
2018-03-03T05:33:26.409Z,4.7
2018-03-03T05:34:15.994Z,4.7
2018-03-03T05:35:06.320Z,4.7
2018-03-03T05:35:55.407Z,4.7
2018-03-03T05:36:46.340Z,4.6
2018-03-03T05:37:36.285Z,4.6
2018-03-03T05:38:26.711Z,4.6
2018-03-03T05:39:15.618Z,4.6
2018-03-03T05:40:06.285Z,4.6
2018-03-03T05:40:57.186Z,4.6
2018-03-03T05:41:47.000Z,4.6
2018-03-03T05:42:36.710Z,4.5
2018-03-03T05:43:26.198Z,4.6
2018-03-03T05:44:16.352Z,4.6
2018-03-03T05:45:06.209Z,4.5
2018-03-03T05:45:56.963Z,4.6
2018-03-03T05:46:47.265Z,4.5
2018-03-03T05:47:37.070Z,4.5
2018-03-03T05:48:27.399Z,4.6
2018-03-03T05:49:16.779Z,4.6
2018-03-03T05:50:07.250Z,4.6
2018-03-03T05:50:57.080Z,4.6
2018-03-03T05:51:47.067Z,4.6
2018-03-03T05:52:37.189Z,4.6
2018-03-03T05:53:26.987Z,4.6
2018-03-03T05:54:17.227Z,4.6
2018-03-03T05:55:07.559Z,4.6
2018-03-03T05:55:57.739Z,4.6
2018-03-03T05:56:47.467Z,4.6
2018-03-03T05:57:37.423Z,4.6
2018-03-03T05:58:27.494Z,4.6
2018-03-03T05:59:17.654Z,4.6
2018-03-03T06:00:08.172Z,4.6
2018-03-03T06:00:57.669Z,4.6
2018-03-03T06:01:48.055Z,4.6
2018-03-03T06:02:38.637Z,4.7
2018-03-03T06:03:28.459Z,4.6
2018-03-03T06:04:18.538Z,4.7
2018-03-03T06:05:08.526Z,4.6
2018-03-03T06:05:58.583Z,4.6
2018-03-03T06:06:48.641Z,4.7
2018-03-03T06:07:38.955Z,4.7
2018-03-03T06:08:28.743Z,4.7
2018-03-03T06:09:18.795Z,4.7
2018-03-03T06:10:09.126Z,4.7
2018-03-03T06:10:58.927Z,4.7
2018-03-03T06:11:48.990Z,4.7
2018-03-03T06:12:39.279Z,4.7
2018-03-03T06:14:22.940Z,4.8
2018-03-03T06:15:13.312Z,4.8
2018-03-03T06:16:03.610Z,4.8
2018-03-03T06:16:53.679Z,4.8
2018-03-03T06:17:43.729Z,4.8
2018-03-03T06:18:32.934Z,4.8
2018-03-03T06:19:23.833Z,4.8
2018-03-03T06:20:13.906Z,4.9
2018-03-03T06:21:04.184Z,4.9
2018-03-03T06:21:53.477Z,4.9
2018-03-03T06:22:43.791Z,4.9
2018-03-03T06:23:34.101Z,4.9
2018-03-03T06:24:23.907Z,4.9
2018-03-03T06:25:13.987Z,4.9
2018-03-03T06:26:04.004Z,5
2018-03-03T06:26:54.355Z,5
2018-03-03T06:27:44.426Z,5.1
2018-03-03T06:28:34.199Z,5.1
2018-03-03T06:29:23.949Z,5.1
2018-03-03T06:30:14.284Z,5.2
2018-03-03T06:31:04.109Z,5.2
2018-03-03T06:31:54.688Z,5.3
2018-03-03T06:32:44.747Z,5.3
2018-03-03T06:33:34.819Z,5.3
2018-03-03T06:34:24.561Z,5.3
2018-03-03T06:35:14.616Z,5.4
2018-03-03T06:36:04.967Z,5.4
2018-03-03T06:36:54.748Z,5.5
2018-03-03T06:37:44.236Z,5.5
2018-03-03T06:38:34.851Z,5.6
2018-03-03T06:39:25.201Z,5.6
2018-03-03T06:40:14.683Z,5.7
2018-03-03T06:41:05.277Z,5.7
2018-03-03T06:41:55.374Z,5.8
2018-03-03T06:42:45.403Z,5.8
2018-03-03T06:43:35.191Z,5.9
2018-03-03T06:44:25.515Z,5.9
2018-03-03T06:45:15.560Z,6
2018-03-03T06:46:05.690Z,6.1
2018-03-03T06:46:55.453Z,6.1
2018-03-03T06:47:45.750Z,6.2
2018-03-03T06:48:35.787Z,6.3
2018-03-03T06:49:25.619Z,6.3
2018-03-03T06:50:15.926Z,6.4
2018-03-03T06:51:05.690Z,6.5
2018-03-03T06:51:55.821Z,6.6
2018-03-03T06:52:46.075Z,6.6
2018-03-03T06:53:36.122Z,6.8
2018-03-03T06:54:25.914Z,6.8
2018-03-03T06:55:16.255Z,6.9
2018-03-03T06:56:06.277Z,7
2018-03-03T06:56:56.387Z,7.1
2018-03-03T06:57:46.147Z,7.2
2018-03-03T06:58:36.464Z,7.3
2018-03-03T06:59:26.514Z,7.4
2018-03-03T07:00:16.280Z,7.5
2018-03-03T07:01:05.979Z,7.6
2018-03-03T07:01:56.027Z,7.8
2018-03-03T07:02:45.907Z,7.9
2018-03-03T07:03:36.009Z,8.1
2018-03-03T07:04:26.291Z,8.3
2018-03-03T07:05:16.048Z,8.4
2018-03-03T07:06:06.264Z,8.6
2018-03-03T07:06:56.462Z,8.8
2018-03-03T07:07:46.699Z,9
2018-03-03T07:08:36.089Z,9.3
2018-03-03T07:09:26.331Z,9.6
2018-03-03T07:10:16.977Z,9.8
2018-03-03T07:11:06.658Z,10.1
2018-03-03T07:11:57.189Z,10.4
2018-03-03T07:12:47.170Z,10.8
2018-03-03T07:13:37.014Z,11.1
2018-03-03T07:14:27.560Z,11.4
2018-03-03T07:15:17.055Z,11.8
2018-03-03T07:16:07.386Z,12.3
2018-03-03T07:16:56.470Z,13
2018-03-03T07:17:47.306Z,13.8
2018-03-03T07:18:37.045Z,14.5
2018-03-03T07:19:27.594Z,15.1
2018-03-03T07:20:17.416Z,15.6
2018-03-03T07:21:07.711Z,16.1
2018-03-03T07:21:57.473Z,16.6
2018-03-03T07:22:47.024Z,-99
2018-03-03T07:23:37.896Z,17.4
2018-03-03T07:24:27.088Z,17.9
2018-03-03T07:25:17.616Z,18.3
2018-03-03T07:26:07.185Z,18.8
2018-03-03T07:26:57.623Z,19.3
2018-03-03T07:27:48.324Z,19.7
2018-03-03T07:28:37.663Z,20
2018-03-03T07:29:27.523Z,20.2
2018-03-03T07:30:18.643Z,20.4
2018-03-03T07:31:07.911Z,20.6
2018-03-03T07:31:57.564Z,21
2018-03-03T07:32:48.138Z,21.5
2018-03-03T07:33:37.983Z,22.1
2018-03-03T07:34:28.335Z,22.6
2018-03-03T07:35:18.661Z,23.1
2018-03-03T07:36:07.853Z,23.5
2018-03-03T07:36:58.093Z,23.9
2018-03-03T07:37:47.948Z,24.3
2018-03-03T07:38:38.112Z,24.6
2018-03-03T07:39:28.695Z,25
2018-03-03T07:40:18.996Z,25.4
2018-03-03T07:41:08.390Z,25.7
2018-03-03T07:41:58.465Z,26.1
2018-03-03T07:42:48.922Z,26.8
2018-03-03T07:43:38.477Z,27.7
2018-03-03T07:44:29.290Z,28.7
2018-03-03T07:45:19.049Z,29.6
2018-03-03T07:46:08.222Z,30.4
2018-03-03T07:46:58.392Z,30.9
2018-03-03T07:47:49.235Z,31.3
2018-03-03T07:48:39.554Z,31.6
2018-03-03T07:49:29.914Z,31.8
2018-03-03T07:50:19.190Z,32.1
2018-03-03T07:51:09.730Z,32.2
2018-03-03T07:51:59.612Z,32.3
2018-03-03T07:52:49.065Z,32.4
2018-03-03T07:53:39.211Z,32.4
2018-03-03T07:54:29.379Z,32.4
2018-03-03T07:55:19.724Z,32.4
2018-03-03T07:56:10.184Z,32.3
2018-03-03T07:57:00.216Z,32.2
2018-03-03T07:57:49.896Z,32.1
2018-03-03T07:58:39.962Z,32.1
2018-03-03T07:59:29.893Z,32.1
2018-03-03T08:00:19.861Z,32.3
2018-03-03T08:01:10.439Z,32.7
2018-03-03T08:02:00.183Z,33.4
2018-03-03T08:02:50.327Z,34.3
2018-03-03T08:03:40.604Z,35.4
2018-03-03T08:04:30.057Z,36.6
2018-03-03T08:05:21.001Z,37.8
2018-03-03T08:06:10.458Z,39.2
2018-03-03T08:07:00.197Z,40.4
2018-03-03T08:07:50.883Z,41.6
2018-03-03T08:08:40.931Z,43.9
2018-03-03T08:09:30.457Z,46.1
2018-03-03T08:10:20.696Z,45.9
2018-03-03T08:11:11.082Z,44.4
2018-03-03T08:12:01.114Z,42.9
2018-03-03T08:12:51.149Z,40.9
2018-03-03T08:13:41.240Z,38.1
2018-03-03T08:14:31.008Z,36.6
2018-03-03T08:15:20.584Z,35.6
2018-03-03T08:16:11.703Z,35
2018-03-03T08:17:01.197Z,34.6
2018-03-03T08:17:50.675Z,34.3
2018-03-03T08:18:40.693Z,34
2018-03-03T08:19:31.378Z,33.8
2018-03-03T08:20:21.192Z,33.6
2018-03-03T08:21:10.980Z,33.4
2018-03-03T08:22:01.406Z,33.4
2018-03-03T08:22:50.975Z,33.6
2018-03-03T08:23:42.222Z,33.8
2018-03-03T08:24:31.398Z,34.1
2018-03-03T08:25:22.091Z,34.3
2018-03-03T08:26:12.382Z,34.6
2018-03-03T08:27:01.464Z,34.9
2018-03-03T08:27:51.802Z,35.3
2018-03-03T08:28:41.764Z,35.9
2018-03-03T08:29:32.121Z,36.7
2018-03-03T08:30:21.880Z,37.3
2018-03-03T08:31:12.140Z,37.7
2018-03-03T08:32:02.520Z,37.9
2018-03-03T08:32:51.681Z,38.2
2018-03-03T08:33:42.014Z,38.4
2018-03-03T08:34:32.961Z,38.6
2018-03-03T08:35:21.521Z,38.9
2018-03-03T08:36:12.561Z,39.3
2018-03-03T08:37:02.729Z,39.6
2018-03-03T08:37:52.387Z,39.8
2018-03-03T08:38:42.631Z,40.3
2018-03-03T08:39:32.776Z,41.6
2018-03-03T08:40:22.642Z,42.1
2018-03-03T08:41:13.351Z,41.6
2018-03-03T08:42:03.401Z,41.3
2018-03-03T08:42:53.483Z,40.4
2018-03-03T08:43:43.532Z,39.1
2018-03-03T08:44:33.011Z,38.2
2018-03-03T08:45:23.348Z,37.4
2018-03-03T08:46:13.401Z,36.8
2018-03-03T08:47:03.481Z,36.4
2018-03-03T08:47:53.829Z,36.7
2018-03-03T08:48:43.575Z,37.5
2018-03-03T08:49:33.090Z,38.8
2018-03-03T08:50:23.213Z,40.6
2018-03-03T08:51:13.601Z,44.1
2018-03-03T08:52:02.873Z,46.9
2018-03-03T08:52:53.681Z,46.6
2018-03-03T08:53:43.660Z,45.6
2018-03-03T08:54:33.425Z,45.1
2018-03-03T08:55:24.340Z,44.6
2018-03-03T08:56:13.838Z,44.1
2018-03-03T08:57:03.682Z,43.9
2018-03-03T08:57:53.925Z,44
2018-03-03T08:58:44.313Z,44.3
2018-03-03T08:59:33.770Z,44.6
2018-03-03T09:00:24.111Z,45.1
2018-03-03T09:01:14.487Z,45.4
2018-03-03T09:02:04.255Z,45.7
2018-03-03T09:02:54.193Z,46.1
2018-03-03T09:03:43.570Z,46.5
2018-03-03T09:04:34.057Z,46.9
2018-03-03T09:05:24.240Z,47.3
2018-03-03T09:06:15.147Z,47.6
2018-03-03T09:07:04.377Z,47.9
2018-03-03T09:07:54.651Z,48.2
2018-03-03T09:08:44.202Z,48.4
2018-03-03T09:09:34.241Z,48.8
2018-03-03T09:10:25.090Z,49.1
2018-03-03T09:11:14.277Z,49.3
2018-03-03T09:12:04.112Z,48.9
2018-03-03T09:12:55.264Z,48
2018-03-03T09:13:44.730Z,47
2018-03-03T09:14:35.214Z,46.5
2018-03-03T09:15:25.256Z,46.6
2018-03-03T09:16:15.246Z,47
2018-03-03T09:17:04.580Z,47
2018-03-03T09:17:55.027Z,46.7
2018-03-03T09:18:45.225Z,46.8
2018-03-03T09:19:35.400Z,47.2
2018-03-03T09:20:25.489Z,47.5
2018-03-03T09:21:15.432Z,47.4
2018-03-03T09:22:05.021Z,47.8
2018-03-03T09:22:55.972Z,48.3
2018-03-03T09:23:45.530Z,48.9
2018-03-03T09:24:36.087Z,49.4
2018-03-03T09:25:25.631Z,49.3
2018-03-03T09:26:15.407Z,48.9
2018-03-03T09:27:05.381Z,48.8
2018-03-03T09:27:55.919Z,48.9
2018-03-03T09:28:45.964Z,49.4
2018-03-03T09:29:36.237Z,50.4
2018-03-03T09:30:26.208Z,51.3
2018-03-03T09:31:16.264Z,51.5
2018-03-03T09:32:06.399Z,51.6
2018-03-03T09:32:55.867Z,52.2
2018-03-03T09:33:45.941Z,52.8
2018-03-03T09:34:36.763Z,53.2
2018-03-03T09:35:26.483Z,53.6
2018-03-03T09:36:16.799Z,54.3
2018-03-03T09:37:06.354Z,55
2018-03-03T09:37:57.082Z,55.6
2018-03-03T09:38:46.373Z,56.2
2018-03-03T09:39:36.948Z,56.5
2018-03-03T09:40:27.022Z,56.5
2018-03-03T09:41:17.148Z,55.8
2018-03-03T09:42:07.211Z,54.8
2018-03-03T09:42:57.053Z,54.4
2018-03-03T09:43:47.213Z,54.6
2018-03-03T09:44:37.305Z,54.9
2018-03-03T09:45:27.166Z,55.4
2018-03-03T09:46:17.383Z,55.9
2018-03-03T09:47:07.085Z,56.3
2018-03-03T09:47:56.912Z,56.6
2018-03-03T09:48:47.070Z,56.7
2018-03-03T09:49:37.262Z,56.7
2018-03-03T09:50:26.885Z,56.6
2018-03-03T09:51:17.738Z,56.6
2018-03-03T09:52:07.533Z,56.6
2018-03-03T09:52:57.462Z,56.8
2018-03-03T09:53:47.738Z,57
2018-03-03T09:54:37.693Z,57.3
2018-03-03T09:55:27.942Z,57.4
2018-03-03T09:56:17.254Z,57.6
2018-03-03T09:57:07.937Z,-99
2018-03-03T09:57:58.096Z,57.9
2018-03-03T09:58:48.591Z,58
2018-03-03T09:59:38.327Z,58.1
2018-03-03T10:00:27.894Z,58.2
2018-03-03T10:01:17.955Z,57.8
2018-03-03T10:02:08.753Z,57.4
2018-03-03T10:02:58.582Z,57.4
2018-03-03T10:03:48.019Z,57.6
2018-03-03T10:04:38.456Z,-99
2018-03-03T10:05:28.059Z,57.5
2018-03-03T10:06:18.664Z,56.5
2018-03-03T10:07:08.452Z,55.2
2018-03-03T10:07:58.796Z,53.8
2018-03-03T10:08:47.867Z,52.5
2018-03-03T10:09:39.206Z,51.8
2018-03-03T10:10:29.266Z,52.1
2018-03-03T10:11:18.729Z,52.4
2018-03-03T10:12:09.372Z,52.2
2018-03-03T10:12:59.434Z,51.9
2018-03-03T10:13:48.719Z,52
2018-03-03T10:14:39.060Z,52.8
2018-03-03T10:15:29.878Z,53.8
2018-03-03T10:16:19.045Z,54.2
2018-03-03T10:17:09.422Z,54.1
2018-03-03T10:17:58.809Z,53.8
2018-03-03T10:18:49.164Z,52.9
2018-03-03T10:19:39.339Z,52
2018-03-03T10:20:29.510Z,51.4
2018-03-03T10:21:19.756Z,51.3
2018-03-03T10:22:09.756Z,51.3
2018-03-03T10:23:00.128Z,51.4
2018-03-03T10:23:49.298Z,51.5
2018-03-03T10:24:39.761Z,51.6
2018-03-03T10:25:29.816Z,51.7
2018-03-03T10:26:20.749Z,51.8
2018-03-03T10:27:10.133Z,-99
2018-03-03T10:28:00.469Z,51.7
2018-03-03T10:28:49.565Z,51.1
2018-03-03T10:29:40.056Z,50.4
2018-03-03T10:30:30.673Z,49.8
2018-03-03T10:31:20.229Z,49.6
2018-03-03T10:32:10.373Z,49.9
2018-03-03T10:33:01.030Z,51.1
2018-03-03T10:33:50.606Z,52.7
2018-03-03T10:34:40.095Z,53.9
2018-03-03T10:35:30.705Z,54.5
2018-03-03T10:36:20.765Z,54.1
2018-03-03T10:37:11.135Z,53
2018-03-03T10:38:00.595Z,51.6
2018-03-03T10:38:50.928Z,50.8
2018-03-03T10:39:41.011Z,51.1
2018-03-03T10:40:30.578Z,51.9
2018-03-03T10:41:20.848Z,52.6
2018-03-03T10:42:10.491Z,53.5
2018-03-03T10:43:01.511Z,54.8
2018-03-03T10:43:51.698Z,55.8
2018-03-03T10:44:41.267Z,56.4
2018-03-03T10:45:30.932Z,56.8
2018-03-03T10:46:21.005Z,56.9
2018-03-03T10:47:11.822Z,56.8
2018-03-03T10:48:01.318Z,56.8
2018-03-03T10:48:51.452Z,56.9
2018-03-03T10:49:42.119Z,57.3
2018-03-03T10:50:31.569Z,57.6
2018-03-03T10:51:21.719Z,57.9
2018-03-03T10:52:11.094Z,58.3
2018-03-03T10:53:02.522Z,-97
2018-03-03T10:53:52.070Z,58.8
2018-03-03T10:54:41.461Z,58.8
2018-03-03T10:55:32.093Z,58.8
2018-03-03T10:56:22.433Z,58.8
2018-03-03T10:57:12.054Z,58.9
2018-03-03T10:58:01.794Z,58.9
2018-03-03T10:58:51.660Z,59
2018-03-03T10:59:42.688Z,59.3
2018-03-03T11:00:31.694Z,59.6
2018-03-03T11:01:22.309Z,60
2018-03-03T11:02:11.012Z,60.4
2018-03-03T11:03:02.713Z,60.6
2018-03-03T11:03:52.439Z,60.8
2018-03-03T11:04:42.279Z,60.8
2018-03-03T11:05:31.831Z,60.8
2018-03-03T11:06:23.281Z,60.8
2018-03-03T11:07:12.953Z,60.8
2018-03-03T11:08:03.636Z,60.8
2018-03-03T11:08:52.483Z,60.9
2018-03-03T11:09:43.386Z,60.9
2018-03-03T11:10:32.966Z,61
2018-03-03T11:11:22.639Z,61.1
2018-03-03T11:12:13.293Z,61.2
2018-03-03T11:13:03.051Z,61.3
2018-03-03T11:13:52.709Z,61.3
2018-03-03T11:14:43.733Z,61.4
2018-03-03T11:15:33.055Z,61.3
2018-03-03T11:16:23.858Z,61.3
2018-03-03T11:17:13.359Z,61.4
2018-03-03T11:18:03.992Z,61.4
2018-03-03T11:18:53.450Z,61.4
2018-03-03T11:19:43.220Z,61.5
2018-03-03T11:20:34.138Z,61.6
2018-03-03T11:21:23.638Z,61.6
2018-03-03T11:22:14.280Z,61.7
2018-03-03T11:23:03.746Z,61.8
2018-03-03T11:23:54.113Z,61.8